createdAt,value
2018-05-25T00:01:52.131Z,94.50
2018-05-25T00:06:43.667Z,94.70
2018-05-25T00:11:35.196Z,94.90
2018-05-25T00:16:26.710Z,95.00
2018-05-25T00:21:18.214Z,95.10
2018-05-25T00:26:09.729Z,95.20
2018-05-25T00:31:01.244Z,95.30
2018-05-25T00:35:53.526Z,95.20
2018-05-25T00:40:45.076Z,95.20
2018-05-25T00:45:36.614Z,95.10
2018-05-25T00:50:28.184Z,95.00
2018-05-25T00:55:38.186Z,94.90
2018-05-25T01:00:29.694Z,94.90
2018-05-25T01:05:22.075Z,95.30
2018-05-25T01:10:13.585Z,95.10
2018-05-25T01:15:05.850Z,95.50
2018-05-25T01:19:57.393Z,95.50
2018-05-25T01:24:48.911Z,95.60
2018-05-25T01:29:41.162Z,95.70
2018-05-25T01:34:33.422Z,95.90
2018-05-25T01:39:25.732Z,96.10
2018-05-25T01:44:17.225Z,96.10
2018-05-25T01:49:08.794Z,96.30
2018-05-25T01:54:00.308Z,96.40
2018-05-25T01:58:51.799Z,96.50
2018-05-25T02:03:44.082Z,96.80
2018-05-25T02:08:35.595Z,96.70
2018-05-25T02:13:27.128Z,96.90
2018-05-25T02:18:19.878Z,97.10
2018-05-25T02:23:12.236Z,97.00
2018-05-25T02:28:04.575Z,97.10
2018-05-25T02:32:56.073Z,97.10
2018-05-25T02:37:47.609Z,97.30
2018-05-25T02:42:39.148Z,97.40
2018-05-25T02:47:30.768Z,97.60
2018-05-25T02:52:22.277Z,97.60
2018-05-25T02:57:13.837Z,97.70
2018-05-25T03:02:05.534Z,98.10
2018-05-25T03:06:57.810Z,98.00
2018-05-25T03:11:49.314Z,98.00
2018-05-25T03:16:41.612Z,98.00
2018-05-25T03:21:33.425Z,98.00
2018-05-25T03:26:24.974Z,98.00
2018-05-25T03:31:16.468Z,98.10
2018-05-25T03:36:07.985Z,98.40
2018-05-25T03:41:01.008Z,98.20
2018-05-25T03:45:52.511Z,98.20
2018-05-25T03:50:44.785Z,98.50
2018-05-25T03:55:36.352Z,98.50
2018-05-25T04:00:46.317Z,98.50
2018-05-25T04:05:37.843Z,98.50
2018-05-25T04:10:29.355Z,98.40
2018-05-25T04:15:20.881Z,98.40
2018-05-25T04:20:13.139Z,98.10
2018-05-25T04:25:04.680Z,98.10
2018-05-25T04:29:56.169Z,97.90
2018-05-25T04:34:47.728Z,97.70
2018-05-25T04:39:39.971Z,97.20
2018-05-25T04:44:32.229Z,96.90
2018-05-25T04:49:24.526Z,96.60
2018-05-25T04:54:16.091Z,96.50
2018-05-25T04:59:07.610Z,96.00
2018-05-25T05:03:59.115Z,95.10
2018-05-25T05:08:50.664Z,93.40
2018-05-25T05:13:42.223Z,93.70
2018-05-25T05:18:33.856Z,93.50
2018-05-25T05:23:25.370Z,93.80
2018-05-25T05:28:16.894Z,93.90
2018-05-25T05:33:08.380Z,92.40
2018-05-25T05:38:00.647Z,87.10
2018-05-25T05:42:52.902Z,84.10
2018-05-25T05:47:45.149Z,82.60
2018-05-25T05:52:37.495Z,80.00
2018-05-25T05:57:29.773Z,78.20
2018-05-25T06:02:21.293Z,78.00
2018-05-25T06:07:13.523Z,76.50
2018-05-25T06:12:05.784Z,77.10
2018-05-25T06:16:58.049Z,82.50
2018-05-25T06:21:49.613Z,82.50
2018-05-25T06:26:41.109Z,86.80
2018-05-25T06:31:33.385Z,88.30
2018-05-25T06:36:24.919Z,88.20
2018-05-25T06:41:16.523Z,85.40
2018-05-25T06:46:08.785Z,75.40
2018-05-25T06:51:00.292Z,75.40
2018-05-25T06:55:52.664Z,70.30
2018-05-25T07:00:44.914Z,68.50
2018-05-25T07:05:37.203Z,69.10
2018-05-25T07:10:28.997Z,69.10
2018-05-25T07:15:21.359Z,61.50
2018-05-25T07:20:13.687Z,59.00
2018-05-25T07:25:05.238Z,59.00
2018-05-25T07:29:56.834Z,58.10
2018-05-25T07:34:48.396Z,57.60
2018-05-25T07:39:39.996Z,56.20
2018-05-25T07:44:31.524Z,53.80
2018-05-25T07:49:23.092Z,54.80
2018-05-25T07:54:14.659Z,53.80
2018-05-25T07:59:06.123Z,53.20
2018-05-25T08:03:57.663Z,51.20
2018-05-25T08:08:49.232Z,48.40
2018-05-25T08:13:40.715Z,47.00
2018-05-25T08:18:32.271Z,45.20
2018-05-25T08:23:23.796Z,44.50
2018-05-25T08:28:15.345Z,46.50
2018-05-25T08:33:06.908Z,51.00
2018-05-25T08:37:58.542Z,50.50
2018-05-25T08:42:50.134Z,48.90
2018-05-25T08:47:42.147Z,45.70
2018-05-25T08:52:34.665Z,45.80
2018-05-25T08:57:27.133Z,47.00
2018-05-25T09:02:18.630Z,46.90
2018-05-25T09:07:10.119Z,48.00
2018-05-25T09:12:02.379Z,45.60
2018-05-25T09:16:54.626Z,45.70
2018-05-25T09:21:46.978Z,44.20
2018-05-25T09:26:38.452Z,44.10
2018-05-25T09:31:29.957Z,42.10
2018-05-25T09:36:21.557Z,44.90
2018-05-25T09:41:13.218Z,49.80
2018-05-25T09:46:04.596Z,48.60
2018-05-25T09:50:56.102Z,50.90
2018-05-25T09:55:48.413Z,48.80
2018-05-25T10:00:39.967Z,48.80
2018-05-25T10:05:32.215Z,46.30
2018-05-25T10:10:24.463Z,45.70
2018-05-25T10:15:15.957Z,45.60
2018-05-25T10:20:07.506Z,51.40
2018-05-25T10:24:59.034Z,50.70
2018-05-25T10:29:50.589Z,52.00
2018-05-25T10:34:42.124Z,54.70
2018-05-25T10:39:33.702Z,57.70
2018-05-25T10:44:25.256Z,56.00
2018-05-25T10:49:16.779Z,53.80
2018-05-25T10:54:08.298Z,57.00
2018-05-25T10:59:00.567Z,54.70
2018-05-25T11:03:52.057Z,54.70
2018-05-25T11:08:43.652Z,56.30
2018-05-25T11:13:35.221Z,54.90
2018-05-25T11:18:26.728Z,54.20
2018-05-25T11:23:18.227Z,54.50
2018-05-25T11:28:09.795Z,52.60
2018-05-25T11:33:01.314Z,50.00
2018-05-25T11:37:52.834Z,53.30
2018-05-25T11:42:44.435Z,52.20
2018-05-25T11:47:36.705Z,51.50
2018-05-25T11:52:28.944Z,51.00
2018-05-25T11:57:21.191Z,49.50
2018-05-25T12:02:12.690Z,49.50
2018-05-25T12:07:04.270Z,50.30
2018-05-25T12:11:56.483Z,49.70
2018-05-25T12:16:47.983Z,49.60
2018-05-25T12:21:39.492Z,48.40
2018-05-25T12:26:31.799Z,49.60
2018-05-25T12:31:23.410Z,49.60
2018-05-25T12:36:14.959Z,48.90
2018-05-25T12:41:06.552Z,46.70
2018-05-25T12:45:58.856Z,47.60
2018-05-25T12:50:50.405Z,47.50
2018-05-25T12:55:43.238Z,46.80
2018-05-25T13:00:34.957Z,47.50
2018-05-25T13:05:26.588Z,47.30
2018-05-25T13:10:18.187Z,46.90
2018-05-25T13:15:09.691Z,45.80
2018-05-25T13:20:01.246Z,46.30
2018-05-25T13:24:52.829Z,46.00
2018-05-25T13:29:44.477Z,43.80
2018-05-25T13:34:36.037Z,46.00
2018-05-25T13:39:27.718Z,46.80
2018-05-25T13:44:20.327Z,46.30
2018-05-25T13:49:11.902Z,46.20
2018-05-25T13:54:03.381Z,47.30
2018-05-25T13:58:54.987Z,45.70
2018-05-25T14:03:47.222Z,45.80
2018-05-25T14:08:40.279Z,45.80
2018-05-25T14:13:32.536Z,46.40
2018-05-25T14:18:24.101Z,48.70
2018-05-25T14:23:15.716Z,48.10
2018-05-25T14:28:08.451Z,46.10
2018-05-25T14:32:59.978Z,46.00
2018-05-25T14:37:51.520Z,45.20
2018-05-25T14:42:43.040Z,44.40
2018-05-25T14:47:34.578Z,44.40
2018-05-25T14:52:26.832Z,44.20
2018-05-25T14:57:18.354Z,44.20
2018-05-25T15:02:09.897Z,44.30
2018-05-25T15:07:02.193Z,44.50
2018-05-25T15:11:53.742Z,44.50
2018-05-25T15:16:45.988Z,46.10
2018-05-25T15:21:38.229Z,47.00
2018-05-25T15:26:30.477Z,46.10
2018-05-25T15:31:22.723Z,46.30
2018-05-25T15:36:14.198Z,46.20
2018-05-25T15:41:05.874Z,49.50
2018-05-25T15:45:57.384Z,49.50
2018-05-25T15:50:48.905Z,48.30
2018-05-25T15:55:40.384Z,48.40
2018-05-25T16:00:31.954Z,48.50
2018-05-25T16:05:24.214Z,49.80
2018-05-25T16:10:15.714Z,49.80
2018-05-25T16:15:07.284Z,50.50
2018-05-25T16:19:58.800Z,49.70
2018-05-25T16:24:51.041Z,50.10
2018-05-25T16:29:43.304Z,51.20
2018-05-25T16:34:34.833Z,51.10
2018-05-25T16:39:27.122Z,50.50
2018-05-25T16:44:18.632Z,50.50
2018-05-25T16:49:10.131Z,51.60
2018-05-25T16:54:01.643Z,52.40
2018-05-25T16:58:53.215Z,53.20
2018-05-25T17:03:44.823Z,53.50
2018-05-25T17:08:36.334Z,53.70
2018-05-25T17:13:27.852Z,54.30
2018-05-25T17:18:19.406Z,54.50
2018-05-25T17:23:10.919Z,54.30
2018-05-25T17:28:02.435Z,53.80
2018-05-25T17:32:53.941Z,54.20
2018-05-25T17:37:45.532Z,54.00
2018-05-25T17:42:37.057Z,54.30
2018-05-25T17:47:28.561Z,55.20
2018-05-25T17:52:20.808Z,55.90
2018-05-25T17:57:13.067Z,56.20
2018-05-25T18:02:06.331Z,56.30
2018-05-25T18:06:57.839Z,56.30
2018-05-25T18:11:49.358Z,56.40
2018-05-25T18:16:41.218Z,56.00
2018-05-25T18:21:32.717Z,56.00
2018-05-25T18:26:24.219Z,57.30
2018-05-25T18:31:16.451Z,58.60
2018-05-25T18:36:07.939Z,58.60
2018-05-25T18:40:59.468Z,59.10
2018-05-25T18:45:50.965Z,59.30
2018-05-25T18:50:43.242Z,60.00
2018-05-25T18:55:34.757Z,59.90
2018-05-25T19:00:26.997Z,61.10
2018-05-25T19:05:19.249Z,61.60
2018-05-25T19:10:10.772Z,61.50
2018-05-25T19:15:02.347Z,62.20
2018-05-25T19:19:53.915Z,63.10
2018-05-25T19:24:45.396Z,63.90
2018-05-25T19:29:37.618Z,65.80
2018-05-25T19:34:29.157Z,65.70
2018-05-25T19:39:20.680Z,66.50
2018-05-25T19:44:13.781Z,67.70
2018-05-25T19:49:06.027Z,68.30
2018-05-25T19:53:58.287Z,68.60
2018-05-25T19:58:50.561Z,68.50
2018-05-25T20:03:42.164Z,68.40
2018-05-25T20:08:34.604Z,70.20
2018-05-25T20:13:26.158Z,69.70
2018-05-25T20:18:17.687Z,69.90
2018-05-25T20:23:09.974Z,70.50
2018-05-25T20:28:01.475Z,70.40
2018-05-25T20:32:53.727Z,72.10
2018-05-25T20:37:46.040Z,72.70
2018-05-25T20:42:37.546Z,72.60
2018-05-25T20:47:29.052Z,73.30
2018-05-25T20:52:21.696Z,73.70
2018-05-25T20:57:13.969Z,74.30
2018-05-25T21:02:06.241Z,75.20
2018-05-25T21:06:57.734Z,75.10
2018-05-25T21:11:49.253Z,76.00
2018-05-25T21:16:40.743Z,76.60
2018-05-25T21:21:32.248Z,77.20
2018-05-25T21:26:24.479Z,78.40
2018-05-25T21:31:16.016Z,78.40
2018-05-25T21:36:07.515Z,78.70
2018-05-25T21:40:59.002Z,79.40
2018-05-25T21:45:51.303Z,80.10
2018-05-25T21:50:43.605Z,80.30
2018-05-25T21:55:35.898Z,81.00
2018-05-25T22:00:29.493Z,80.90
2018-05-25T22:05:20.999Z,81.40
2018-05-25T22:10:12.510Z,81.70
2018-05-25T22:15:04.751Z,82.80
2018-05-25T22:19:57.011Z,83.40
2018-05-25T22:24:49.253Z,83.60
2018-05-25T22:29:40.802Z,83.50
2018-05-25T22:34:33.049Z,84.20
2018-05-25T22:39:25.383Z,84.60
2018-05-25T22:44:35.401Z,84.50
2018-05-25T22:49:45.461Z,84.90
2018-05-25T22:54:41.911Z,85.30
2018-05-25T22:59:33.393Z,86.10
2018-05-25T23:04:24.886Z,86.60
2018-05-25T23:09:16.439Z,86.30
2018-05-25T23:14:07.915Z,86.40
2018-05-25T23:19:00.208Z,84.90
2018-05-25T23:23:51.736Z,84.80
2018-05-25T23:28:43.250Z,85.20
2018-05-25T23:33:34.767Z,85.70
2018-05-25T23:38:28.053Z,86.70
2018-05-25T23:43:20.293Z,87.00
2018-05-25T23:48:12.540Z,88.00
2018-05-25T23:53:04.041Z,87.20
2018-05-25T23:57:55.552Z,87.50
